GRZ516 Details

Departure: Sacramento International Airport (KSMF)
Arrival: Ted Stevens Anchorage International Airport (PANC)
Route: ILA OED J501 HQM J501 TOU J523 YZT J502 ANN J195 BKA J501 JOH WITTI4


Current Weather Information
KSMF 251053Z 16006KT 10SM CLR 22/12 A2990 RMK AO2 SLP126 T02170122
PANC 251055Z 16005KT 3SM FU OVC080 13/08 A2985 RMK AO2 T01280083